createdAt,value
2023-05-22T00:02:16.829Z,4.95
2023-05-22T00:04:46.797Z,5.38
2023-05-22T00:07:14.364Z,5.35
2023-05-22T00:09:41.923Z,5.40
2023-05-22T00:12:09.707Z,5.45
2023-05-22T00:14:37.286Z,5.63
2023-05-22T00:17:05.590Z,5.75
2023-05-22T00:19:33.391Z,5.30
2023-05-22T00:22:02.404Z,5.18
2023-05-22T00:24:29.908Z,4.88
2023-05-22T00:26:57.435Z,5.15
2023-05-22T00:29:24.991Z,5.38
2023-05-22T00:31:52.545Z,5.22
2023-05-22T00:34:20.404Z,5.00
2023-05-22T00:36:47.996Z,4.93
2023-05-22T00:39:17.046Z,5.80
2023-05-22T00:41:44.655Z,5.35
2023-05-22T00:44:12.822Z,4.95
2023-05-22T00:46:40.974Z,5.75
2023-05-22T00:49:08.600Z,4.95
2023-05-22T00:51:36.137Z,5.15
2023-05-22T00:54:03.646Z,5.13
2023-05-22T00:56:32.674Z,4.70
2023-05-22T00:59:00.385Z,5.07
2023-05-22T01:01:33.368Z,4.80
2023-05-22T01:04:01.855Z,5.18
2023-05-22T01:06:32.139Z,4.90
2023-05-22T01:08:59.766Z,4.68
2023-05-22T01:11:32.712Z,5.10
2023-05-22T01:14:08.421Z,5.03
2023-05-22T01:16:40.458Z,4.80
2023-05-22T01:19:15.996Z,4.65
2023-05-22T01:21:49.111Z,5.00
2023-05-22T01:24:51.877Z,4.60
2023-05-22T01:27:29.176Z,4.75
2023-05-22T01:30:09.482Z,4.70
2023-05-22T01:32:39.634Z,4.53
2023-05-22T01:35:09.128Z,5.00
2023-05-22T01:37:37.311Z,4.93
2023-05-22T01:40:07.443Z,4.65
2023-05-22T01:42:35.534Z,5.05
2023-05-22T01:45:03.298Z,4.90
2023-05-22T01:47:31.463Z,4.88
2023-05-22T01:50:00.504Z,4.95
2023-05-22T01:52:35.566Z,4.70
2023-05-22T01:55:07.611Z,4.68
2023-05-22T01:57:42.315Z,4.90
2023-05-22T02:00:12.427Z,4.82
2023-05-22T02:02:41.382Z,4.97
2023-05-22T02:05:12.226Z,4.57
2023-05-22T02:07:41.643Z,4.50
2023-05-22T02:10:11.363Z,4.95
2023-05-22T02:12:39.123Z,4.70
2023-05-22T02:15:08.163Z,4.90
2023-05-22T02:17:40.263Z,4.80
2023-05-22T02:20:14.433Z,4.97
2023-05-22T02:22:43.633Z,4.95
2023-05-22T02:25:14.356Z,4.90
2023-05-22T02:27:42.896Z,5.20
2023-05-22T02:30:11.120Z,4.90
2023-05-22T02:32:39.609Z,4.20
2023-05-22T02:35:07.633Z,5.05
2023-05-22T02:37:36.699Z,4.43
2023-05-22T02:40:06.096Z,4.55
2023-05-22T02:42:33.716Z,4.40
2023-05-22T02:45:01.366Z,4.85
2023-05-22T02:47:28.997Z,4.65
2023-05-22T02:49:57.822Z,4.88
2023-05-22T02:52:25.809Z,4.80
2023-05-22T02:54:54.652Z,4.65
2023-05-22T02:57:22.168Z,4.30
2023-05-22T02:59:49.668Z,4.60
2023-05-22T03:02:17.780Z,4.70
2023-05-22T03:04:45.384Z,5.43
2023-05-22T03:07:13.278Z,4.95
2023-05-22T03:09:40.805Z,4.65
2023-05-22T03:12:10.884Z,5.00
2023-05-22T03:14:38.428Z,4.97
2023-05-22T03:17:06.320Z,4.82
2023-05-22T03:19:33.888Z,4.60
2023-05-22T03:22:01.469Z,4.50
2023-05-22T03:24:29.020Z,4.82
2023-05-22T03:26:56.529Z,4.28
2023-05-22T03:29:25.455Z,4.82
2023-05-22T03:31:54.668Z,4.75
2023-05-22T03:34:22.684Z,4.78
2023-05-22T03:36:50.716Z,4.00
2023-05-22T03:39:18.225Z,4.05
2023-05-22T03:41:45.716Z,4.55
2023-05-22T03:44:13.261Z,4.80
2023-05-22T03:46:42.126Z,4.57
2023-05-22T03:49:09.655Z,4.55
2023-05-22T03:51:37.222Z,5.07
2023-05-22T03:54:05.160Z,4.90
2023-05-22T03:56:32.666Z,4.43
2023-05-22T03:59:00.554Z,4.93
2023-05-22T04:01:28.101Z,4.80
2023-05-22T04:03:56.955Z,5.28
2023-05-22T04:06:25.609Z,5.18
2023-05-22T04:08:53.206Z,5.30
2023-05-22T04:11:22.826Z,5.32
2023-05-22T04:13:50.561Z,5.80
2023-05-22T04:16:18.268Z,4.90
2023-05-22T04:18:45.889Z,5.13
2023-05-22T04:21:14.761Z,4.50
2023-05-22T04:23:43.374Z,7.60
2023-05-22T04:26:10.930Z,4.93
2023-05-22T04:28:39.189Z,4.43
2023-05-22T04:31:07.488Z,4.70
2023-05-22T04:33:35.343Z,5.22
2023-05-22T04:36:03.224Z,4.43
2023-05-22T04:38:36.452Z,4.63
2023-05-22T04:41:04.358Z,4.57
2023-05-22T04:43:32.422Z,8.20
2023-05-22T04:46:00.708Z,4.57
2023-05-22T04:48:28.239Z,4.97
2023-05-22T04:50:57.437Z,4.60
2023-05-22T04:53:24.987Z,4.20
2023-05-22T04:55:53.822Z,4.60
2023-05-22T04:58:21.859Z,4.40
2023-05-22T05:00:49.411Z,4.88
2023-05-22T05:03:17.168Z,4.35
2023-05-22T05:05:44.854Z,4.47
2023-05-22T05:08:12.390Z,4.65
2023-05-22T05:10:40.382Z,4.57
2023-05-22T05:13:09.428Z,7.30
2023-05-22T05:15:36.920Z,4.28
2023-05-22T05:18:04.551Z,4.40
2023-05-22T05:20:32.080Z,4.72
2023-05-22T05:22:59.615Z,4.55
2023-05-22T05:25:27.130Z,4.80
2023-05-22T05:27:54.664Z,4.10
2023-05-22T05:30:23.484Z,4.25
2023-05-22T05:32:51.262Z,5.55
2023-05-22T05:35:19.083Z,4.70
2023-05-22T05:37:46.577Z,5.80
2023-05-22T05:40:14.964Z,4.43
2023-05-22T05:42:42.480Z,4.22
2023-05-22T05:45:11.567Z,4.60
2023-05-22T05:47:41.316Z,4.93
2023-05-22T05:50:09.660Z,4.57
2023-05-22T05:52:37.190Z,5.10
2023-05-22T05:55:05.101Z,4.00
2023-05-22T05:57:32.700Z,4.50
2023-05-22T06:00:00.381Z,4.43
2023-05-22T06:02:28.143Z,4.75
2023-05-22T06:04:57.035Z,4.57
2023-05-22T06:07:24.637Z,4.93
2023-05-22T06:09:52.568Z,4.97
2023-05-22T06:12:20.086Z,4.60
2023-05-22T06:14:47.620Z,4.53
2023-05-22T06:17:15.461Z,4.95
2023-05-22T06:19:43.183Z,4.80
2023-05-22T06:22:12.202Z,4.35
2023-05-22T06:24:39.808Z,4.70
2023-05-22T06:27:07.846Z,4.65
2023-05-22T06:29:35.366Z,5.97
2023-05-22T06:32:02.949Z,4.63
2023-05-22T06:34:30.519Z,5.70
2023-05-22T06:36:58.061Z,4.47
2023-05-22T06:39:27.063Z,5.05
2023-05-22T06:41:54.569Z,5.00
2023-05-22T06:44:22.086Z,5.03
2023-05-22T06:46:49.619Z,4.57
2023-05-22T06:49:17.127Z,4.97
2023-05-22T06:51:44.821Z,5.50
2023-05-22T06:54:13.742Z,5.18
2023-05-22T06:56:42.779Z,4.63
2023-05-22T06:59:11.686Z,4.57
2023-05-22T07:01:39.386Z,5.13
2023-05-22T07:04:08.941Z,4.25
2023-05-22T07:06:38.892Z,4.70
2023-05-22T07:09:07.067Z,4.45
2023-05-22T07:11:35.553Z,4.35
2023-05-22T07:14:04.482Z,4.20
2023-05-22T07:16:32.085Z,4.55
2023-05-22T07:18:59.636Z,4.53
2023-05-22T07:21:27.181Z,4.45
2023-05-22T07:23:54.795Z,4.70
2023-05-22T07:26:22.584Z,4.90
2023-05-22T07:28:50.415Z,4.63
2023-05-22T07:31:19.327Z,4.78
2023-05-22T07:33:47.038Z,4.53
2023-05-22T07:36:14.531Z,3.97
2023-05-22T07:38:42.168Z,4.43
2023-05-22T07:41:09.663Z,4.35
2023-05-22T07:43:37.404Z,4.60
2023-05-22T07:46:06.124Z,4.43
2023-05-22T07:48:35.049Z,4.50
2023-05-22T07:51:03.700Z,4.88
2023-05-22T07:53:31.728Z,4.53
2023-05-22T07:55:59.265Z,3.97
2023-05-22T07:58:26.886Z,4.50
2023-05-22T08:00:54.506Z,4.57
2023-05-22T08:03:23.982Z,4.18
2023-05-22T08:05:53.255Z,4.47
2023-05-22T08:08:20.832Z,3.60
2023-05-22T08:11:02.887Z,4.43
2023-05-22T08:13:31.536Z,7.05
2023-05-22T08:16:00.325Z,4.65
2023-05-22T08:18:29.284Z,4.80
2023-05-22T08:21:00.138Z,4.50
2023-05-22T08:23:27.691Z,4.20
2023-05-22T08:25:55.229Z,3.90
2023-05-22T08:28:22.728Z,4.88
2023-05-22T08:30:50.277Z,4.25
2023-05-22T08:33:19.654Z,4.90
2023-05-22T08:35:47.345Z,3.67
2023-05-22T08:38:16.360Z,4.00
2023-05-22T08:40:46.620Z,4.88
2023-05-22T08:43:15.481Z,4.50
2023-05-22T08:45:44.306Z,4.32
2023-05-22T08:48:14.008Z,5.10
2023-05-22T08:50:43.494Z,4.20
2023-05-22T08:53:14.855Z,4.70
2023-05-22T08:55:43.753Z,4.53
2023-05-22T08:58:12.259Z,4.80
2023-05-22T09:00:40.086Z,4.00
2023-05-22T09:03:10.170Z,4.10
2023-05-22T09:05:39.191Z,3.47
2023-05-22T09:08:19.079Z,3.85
2023-05-22T09:10:49.921Z,3.85
2023-05-22T09:13:26.115Z,3.90
2023-05-22T09:15:53.878Z,4.22
2023-05-22T09:18:22.056Z,3.97
2023-05-22T09:20:49.621Z,4.80
2023-05-22T09:23:19.711Z,4.07
2023-05-22T09:25:48.750Z,4.40
2023-05-22T09:28:16.287Z,4.07
2023-05-22T09:30:43.985Z,3.60
2023-05-22T09:33:14.149Z,4.40
2023-05-22T09:35:42.147Z,4.70
2023-05-22T09:38:11.457Z,4.20
2023-05-22T09:40:40.651Z,4.25
2023-05-22T09:43:10.421Z,4.38
2023-05-22T09:45:38.894Z,4.60
2023-05-22T09:48:07.419Z,3.70
2023-05-22T09:50:34.976Z,3.67
2023-05-22T09:53:03.872Z,3.58
2023-05-22T09:55:32.060Z,3.45
2023-05-22T09:58:04.276Z,3.80
2023-05-22T10:00:34.526Z,4.25
2023-05-22T10:03:08.162Z,4.60
2023-05-22T10:05:38.032Z,4.20
2023-05-22T10:08:10.383Z,4.03
2023-05-22T10:10:39.462Z,4.30
2023-05-22T10:13:07.789Z,4.47
2023-05-22T10:15:37.025Z,4.20
2023-05-22T10:18:05.826Z,3.80
2023-05-22T10:20:33.662Z,4.30
2023-05-22T10:23:03.818Z,4.97
2023-05-22T10:25:31.496Z,4.88
2023-05-22T10:27:59.612Z,3.75
2023-05-22T10:30:31.026Z,3.70
2023-05-22T10:33:04.892Z,3.78
2023-05-22T10:35:39.841Z,4.13
2023-05-22T10:38:21.774Z,4.25
2023-05-22T10:40:49.714Z,3.60
2023-05-22T10:43:17.291Z,4.32
2023-05-22T10:45:46.000Z,3.95
2023-05-22T10:48:14.910Z,4.00
2023-05-22T10:50:52.781Z,3.40
2023-05-22T10:53:22.098Z,3.80
2023-05-22T10:55:50.130Z,3.63
2023-05-22T10:58:18.097Z,3.78
2023-05-22T11:00:46.112Z,4.75
2023-05-22T11:03:18.401Z,3.40
2023-05-22T11:05:53.737Z,3.55
2023-05-22T11:08:38.334Z,3.50
2023-05-22T11:11:13.836Z,3.00
2023-05-22T11:13:42.467Z,4.18
2023-05-22T11:16:11.294Z,3.25
2023-05-22T11:18:40.286Z,3.40
2023-05-22T11:21:11.220Z,3.70
2023-05-22T11:23:39.076Z,3.72
2023-05-22T11:26:25.564Z,3.72
2023-05-22T11:28:55.542Z,3.20
2023-05-22T11:31:24.160Z,3.83
2023-05-22T11:33:54.189Z,2.85
2023-05-22T11:36:21.912Z,4.07
2023-05-22T11:38:49.563Z,5.10
2023-05-22T11:41:17.160Z,3.85
2023-05-22T11:43:45.199Z,4.03
2023-05-22T11:46:14.096Z,3.95
2023-05-22T11:48:42.099Z,3.67
2023-05-22T11:51:11.168Z,3.38
2023-05-22T11:53:38.711Z,3.47
2023-05-22T11:56:06.877Z,3.47
2023-05-22T11:58:34.933Z,3.10
2023-05-22T12:01:03.356Z,3.38
2023-05-22T12:03:31.591Z,3.55
2023-05-22T12:05:59.868Z,2.97
2023-05-22T12:08:28.780Z,3.47
2023-05-22T12:10:56.291Z,3.30
2023-05-22T12:13:25.121Z,3.80
2023-05-22T12:15:54.298Z,3.38
2023-05-22T12:18:21.902Z,3.05
2023-05-22T12:20:54.320Z,3.40
2023-05-22T12:23:26.181Z,2.80
2023-05-22T12:26:03.788Z,3.25
2023-05-22T12:28:32.918Z,3.17
2023-05-22T12:31:00.614Z,3.20
2023-05-22T12:33:28.833Z,3.05
2023-05-22T12:35:58.457Z,2.85
2023-05-22T12:38:27.494Z,2.80
2023-05-22T12:40:56.003Z,2.75
2023-05-22T12:43:29.465Z,3.10
2023-05-22T12:45:57.401Z,2.50
2023-05-22T12:48:24.936Z,2.67
2023-05-22T12:50:52.475Z,3.10
2023-05-22T12:53:21.862Z,3.08
2023-05-22T12:55:49.671Z,3.10
2023-05-22T12:58:17.352Z,3.15
2023-05-22T13:00:46.175Z,3.30
2023-05-22T13:03:13.768Z,3.05
2023-05-22T13:05:41.649Z,3.30
2023-05-22T13:08:09.651Z,2.90
2023-05-22T13:10:38.414Z,2.95
2023-05-22T13:13:05.985Z,3.08
2023-05-22T13:15:36.068Z,3.15
2023-05-22T13:18:04.995Z,2.72
2023-05-22T13:20:32.654Z,3.17
2023-05-22T13:23:00.189Z,2.63
2023-05-22T13:25:27.702Z,2.92
2023-05-22T13:27:55.562Z,2.72
2023-05-22T13:30:23.129Z,3.10
2023-05-22T13:32:50.714Z,2.80
2023-05-22T13:35:19.764Z,2.65
2023-05-22T13:37:47.292Z,2.97
2023-05-22T13:40:15.976Z,3.88
2023-05-22T13:42:43.508Z,3.20
2023-05-22T13:45:12.336Z,3.45
2023-05-22T13:47:40.114Z,2.85
2023-05-22T13:50:09.538Z,3.15
2023-05-22T13:52:39.063Z,2.90
2023-05-22T13:55:07.336Z,3.20
2023-05-22T13:57:35.096Z,3.40
2023-05-22T14:00:02.604Z,2.88
2023-05-22T14:02:30.299Z,3.05
2023-05-22T14:04:57.868Z,2.92
2023-05-22T14:07:25.498Z,2.65
2023-05-22T14:09:54.372Z,2.90
2023-05-22T14:12:21.947Z,2.63
2023-05-22T14:14:49.450Z,3.58
2023-05-22T14:17:16.999Z,4.90
2023-05-22T14:19:44.539Z,12.57
2023-05-22T14:22:12.137Z,12.57
2023-05-22T14:24:39.721Z,6.53
2023-05-22T14:27:08.596Z,7.63
2023-05-22T14:29:36.167Z,5.20
2023-05-22T14:32:05.563Z,4.15
2023-05-22T14:34:33.093Z,4.45
2023-05-22T14:37:00.656Z,3.75
2023-05-22T14:39:28.915Z,3.25
2023-05-22T14:41:59.578Z,3.20
2023-05-22T14:44:28.421Z,3.17
2023-05-22T14:46:55.955Z,3.30
2023-05-22T14:49:23.479Z,3.28
2023-05-22T14:51:51.027Z,3.10
2023-05-22T14:54:20.266Z,3.72
2023-05-22T14:56:47.829Z,3.03
2023-05-22T14:59:15.406Z,2.95
2023-05-22T15:01:44.504Z,3.10
2023-05-22T15:04:12.089Z,3.13
2023-05-22T15:06:39.734Z,3.00
2023-05-22T15:09:07.272Z,3.53
2023-05-22T15:11:34.850Z,3.10
2023-05-22T15:14:02.372Z,3.53
2023-05-22T15:16:30.013Z,3.63
2023-05-22T15:18:58.943Z,3.40
2023-05-22T15:21:26.630Z,3.33
2023-05-22T15:23:54.187Z,3.50
2023-05-22T15:26:22.298Z,3.08
2023-05-22T15:28:49.796Z,3.20
2023-05-22T15:31:17.362Z,3.53
2023-05-22T15:33:46.462Z,3.08
2023-05-22T15:36:15.337Z,3.25
2023-05-22T15:38:42.875Z,3.00
2023-05-22T15:41:10.418Z,3.20
2023-05-22T15:43:38.038Z,3.67
2023-05-22T15:46:05.609Z,5.30
2023-05-22T15:48:33.270Z,4.10
2023-05-22T15:51:00.869Z,3.10
2023-05-22T15:53:29.706Z,3.60
2023-05-22T15:55:57.224Z,3.10
2023-05-22T15:58:24.768Z,3.40
2023-05-22T16:00:52.305Z,3.80
2023-05-22T16:03:19.922Z,3.45
2023-05-22T16:05:47.811Z,3.88
2023-05-22T16:08:15.964Z,3.65
2023-05-22T16:10:46.971Z,3.40
2023-05-22T16:13:14.944Z,3.33
2023-05-22T16:15:44.626Z,3.83
2023-05-22T16:18:12.865Z,3.63
2023-05-22T16:20:40.527Z,3.30
2023-05-22T16:23:08.064Z,3.42
2023-05-22T16:25:35.612Z,3.83
2023-05-22T16:28:05.573Z,3.72
2023-05-22T16:30:33.114Z,3.60
2023-05-22T16:33:00.721Z,3.65
2023-05-22T16:35:28.409Z,4.00
2023-05-22T16:37:55.932Z,4.10
2023-05-22T16:40:23.436Z,3.90
2023-05-22T16:42:51.676Z,3.90
2023-05-22T16:45:20.551Z,3.90
2023-05-22T16:47:48.105Z,3.60
2023-05-22T16:50:15.792Z,3.47
2023-05-22T16:52:43.308Z,3.20
2023-05-22T16:55:11.238Z,3.65
2023-05-22T16:57:39.223Z,3.50
2023-05-22T17:00:10.735Z,3.70
2023-05-22T17:02:39.787Z,3.65
2023-05-22T17:05:08.296Z,3.40
2023-05-22T17:07:35.786Z,3.28
2023-05-22T17:10:07.293Z,3.60
2023-05-22T17:12:34.921Z,3.38
2023-05-22T17:15:02.449Z,3.33
2023-05-22T17:17:30.029Z,3.33
2023-05-22T17:19:59.543Z,3.20
2023-05-22T17:22:27.063Z,3.15
2023-05-22T17:24:54.596Z,2.95
2023-05-22T17:27:34.984Z,3.10
2023-05-22T17:30:06.896Z,3.10
2023-05-22T17:32:34.840Z,3.20
2023-05-22T17:35:05.996Z,3.47
2023-05-22T17:37:33.522Z,3.30
2023-05-22T17:40:01.185Z,3.40
2023-05-22T17:42:28.869Z,4.13
2023-05-22T17:44:56.467Z,3.22
2023-05-22T17:47:23.993Z,2.88
2023-05-22T17:49:51.570Z,3.05
2023-05-22T17:52:20.428Z,3.47
2023-05-22T17:54:49.830Z,3.05
2023-05-22T17:57:17.369Z,3.28
2023-05-22T17:59:44.990Z,3.50
2023-05-22T18:02:12.523Z,3.45
2023-05-22T18:04:40.659Z,3.55
2023-05-22T18:07:08.221Z,3.60
2023-05-22T18:09:37.062Z,3.05
2023-05-22T18:12:04.860Z,4.03
2023-05-22T18:14:32.402Z,4.15
2023-05-22T18:16:59.935Z,3.80
2023-05-22T18:19:27.528Z,3.20
2023-05-22T18:21:55.585Z,3.13
2023-05-22T18:24:25.072Z,3.03
2023-05-22T18:26:54.799Z,3.50
2023-05-22T18:29:22.303Z,3.20
2023-05-22T18:31:49.847Z,3.10
2023-05-22T18:34:17.413Z,3.17
2023-05-22T18:36:45.037Z,2.75
2023-05-22T18:39:12.550Z,3.30
2023-05-22T18:41:40.085Z,2.90
2023-05-22T18:44:08.899Z,2.92
2023-05-22T18:46:36.451Z,2.80
2023-05-22T18:49:04.919Z,2.78
2023-05-22T18:51:32.666Z,3.20
2023-05-22T18:54:00.210Z,2.75
2023-05-22T18:56:27.769Z,3.25
2023-05-22T18:58:55.520Z,3.05
2023-05-22T19:01:24.377Z,3.00
2023-05-22T19:03:51.956Z,3.10
2023-05-22T19:06:19.813Z,2.80
2023-05-22T19:08:47.334Z,2.70
2023-05-22T19:11:14.837Z,2.72
2023-05-22T19:13:42.921Z,2.90
2023-05-22T19:16:10.476Z,2.63
2023-05-22T19:18:39.358Z,2.90
2023-05-22T19:21:07.053Z,2.75
2023-05-22T19:23:34.602Z,2.95
2023-05-22T19:26:02.160Z,3.08
2023-05-22T19:28:31.503Z,3.42
2023-05-22T19:31:00.052Z,2.92
2023-05-22T19:33:27.716Z,2.60
2023-05-22T19:35:56.599Z,2.75
2023-05-22T19:38:24.176Z,2.90
2023-05-22T19:40:51.704Z,2.50
2023-05-22T19:43:19.383Z,2.63
2023-05-22T19:45:47.133Z,2.75
2023-05-22T19:48:14.936Z,2.80
2023-05-22T19:50:42.863Z,2.45
2023-05-22T19:53:11.840Z,2.90
2023-05-22T19:55:39.381Z,3.20
2023-05-22T19:58:06.953Z,3.22
2023-05-22T20:00:35.709Z,3.40
2023-05-22T20:03:03.420Z,3.40
2023-05-22T20:05:30.986Z,3.65
2023-05-22T20:07:58.893Z,3.90
2023-05-22T20:10:27.726Z,4.80
2023-05-22T20:12:55.708Z,5.00
2023-05-22T20:15:24.799Z,5.97
2023-05-22T20:17:53.506Z,6.05
2023-05-22T20:20:21.256Z,6.35
2023-05-22T20:22:48.907Z,7.00
2023-05-22T20:25:17.231Z,6.65
2023-05-22T20:27:46.104Z,5.50
2023-05-22T20:30:14.400Z,5.47
2023-05-22T20:32:42.647Z,5.40
2023-05-22T20:35:10.816Z,7.20
2023-05-22T20:37:38.620Z,7.93
2023-05-22T20:40:09.169Z,7.65
2023-05-22T20:42:37.415Z,7.93
2023-05-22T20:45:07.463Z,8.85
2023-05-22T20:47:35.695Z,8.38
2023-05-22T20:50:03.280Z,8.52
2023-05-22T20:52:31.211Z,8.40
2023-05-22T20:54:58.953Z,8.45
2023-05-22T20:57:26.792Z,6.75
2023-05-22T20:59:54.942Z,7.75
2023-05-22T21:02:23.785Z,7.22
2023-05-22T21:04:51.324Z,7.63
2023-05-22T21:07:19.552Z,7.05
2023-05-22T21:09:47.161Z,6.28
2023-05-22T21:12:14.700Z,7.50
2023-05-22T21:14:43.731Z,7.80
2023-05-22T21:17:11.444Z,8.13
2023-05-22T21:19:40.322Z,7.15
2023-05-22T21:22:07.903Z,7.50
2023-05-22T21:24:35.481Z,7.47
2023-05-22T21:27:02.982Z,7.05
2023-05-22T21:29:30.511Z,6.07
2023-05-22T21:31:58.027Z,6.50
2023-05-22T21:34:25.852Z,6.70
2023-05-22T21:36:54.685Z,6.65
2023-05-22T21:39:22.180Z,7.03
2023-05-22T21:41:50.070Z,7.15
2023-05-22T21:44:18.466Z,6.53
2023-05-22T21:46:46.046Z,7.18
2023-05-22T21:49:13.608Z,6.97
2023-05-22T21:51:41.307Z,7.10
2023-05-22T21:54:10.135Z,5.43
2023-05-22T21:56:38.538Z,5.57
2023-05-22T21:59:06.068Z,5.32
2023-05-22T22:01:33.644Z,5.78
2023-05-22T22:04:01.217Z,7.40
2023-05-22T22:06:28.885Z,6.55
2023-05-22T22:08:58.724Z,6.35
2023-05-22T22:11:27.575Z,6.72
2023-05-22T22:13:55.088Z,6.80
2023-05-22T22:16:22.732Z,7.22
2023-05-22T22:18:51.156Z,6.60
2023-05-22T22:21:18.696Z,5.07
2023-05-22T22:23:46.331Z,5.40
2023-05-22T22:26:14.086Z,5.72
2023-05-22T22:28:42.929Z,6.30
2023-05-22T22:31:10.449Z,6.90
2023-05-22T22:33:38.134Z,6.15
2023-05-22T22:36:06.129Z,7.45
2023-05-22T22:38:35.045Z,5.95
2023-05-22T22:41:03.980Z,5.00
2023-05-22T22:43:32.248Z,6.18
2023-05-22T22:46:01.154Z,6.30
2023-05-22T22:48:28.805Z,5.03
2023-05-22T22:50:56.406Z,5.38
2023-05-22T22:53:23.916Z,6.45
2023-05-22T22:55:55.583Z,7.68
2023-05-22T22:58:23.522Z,5.68
2023-05-22T23:00:51.087Z,7.50
2023-05-22T23:03:20.164Z,7.22
2023-05-22T23:05:48.031Z,5.32
2023-05-22T23:08:15.783Z,6.32
2023-05-22T23:10:43.297Z,5.20
2023-05-22T23:13:10.904Z,4.82
2023-05-22T23:15:38.733Z,6.40
2023-05-22T23:18:06.701Z,7.40
2023-05-22T23:20:35.668Z,7.50
2023-05-22T23:23:03.190Z,7.63
2023-05-22T23:25:30.917Z,7.88
2023-05-22T23:27:58.417Z,7.80
2023-05-22T23:30:25.981Z,7.75
2023-05-22T23:32:53.731Z,7.93
2023-05-22T23:35:21.320Z,8.07
2023-05-22T23:37:50.124Z,7.85
2023-05-22T23:40:17.902Z,7.90
2023-05-22T23:42:45.572Z,7.68
2023-05-22T23:45:13.091Z,8.30
2023-05-22T23:47:40.665Z,8.40
2023-05-22T23:50:08.949Z,7.68
2023-05-22T23:52:36.617Z,7.60
2023-05-22T23:55:06.623Z,6.57
2023-05-22T23:57:34.387Z,8.30
